createdAt,value
2018-12-05T00:00:12.303Z,2.54
2018-12-05T00:01:12.331Z,2.59
2018-12-05T00:02:12.366Z,2.67
2018-12-05T00:03:12.401Z,2.56
2018-12-05T00:04:12.435Z,2.66
2018-12-05T00:05:12.471Z,2.69
2018-12-05T00:06:12.505Z,2.69
2018-12-05T00:07:12.558Z,2.64
2018-12-05T00:08:12.578Z,2.66
2018-12-05T00:09:12.614Z,2.63
2018-12-05T00:10:12.647Z,2.61
2018-12-05T00:11:12.680Z,2.53
2018-12-05T00:12:12.719Z,2.45
2018-12-05T00:13:12.752Z,2.41
2018-12-05T00:14:12.786Z,2.48
2018-12-05T00:15:12.824Z,2.46
2018-12-05T00:16:12.862Z,2.39
2018-12-05T00:17:12.896Z,2.48
2018-12-05T00:18:12.928Z,2.41
2018-12-05T00:19:12.967Z,2.38
2018-12-05T00:20:12.997Z,2.35
2018-12-05T00:21:13.032Z,2.30
2018-12-05T00:22:13.167Z,2.27
2018-12-05T00:23:13.102Z,2.30
2018-12-05T00:24:13.138Z,2.30
2018-12-05T00:25:13.176Z,2.28
2018-12-05T00:26:13.209Z,2.34
2018-12-05T00:27:13.254Z,2.36
2018-12-05T00:28:13.278Z,2.48
2018-12-05T00:29:13.317Z,2.48
2018-12-05T00:30:13.348Z,2.35
2018-12-05T00:31:13.383Z,2.34
2018-12-05T00:32:13.416Z,2.41
2018-12-05T00:33:13.451Z,2.30
2018-12-05T00:34:13.486Z,2.48
2018-12-05T00:35:13.521Z,2.49
2018-12-05T00:36:13.556Z,2.48
2018-12-05T00:37:13.598Z,2.46
2018-12-05T00:38:13.698Z,2.43
2018-12-05T00:39:13.974Z,2.48
2018-12-05T00:40:13.698Z,2.52
2018-12-05T00:41:13.732Z,2.43
2018-12-05T00:42:13.764Z,2.48
2018-12-05T00:43:13.803Z,2.41
2018-12-05T00:44:13.837Z,2.48
2018-12-05T00:45:13.871Z,2.46
2018-12-05T00:46:13.908Z,2.43
2018-12-05T00:47:13.942Z,2.45
2018-12-05T00:48:13.977Z,2.46
2018-12-05T00:49:14.011Z,2.45
2018-12-05T00:50:14.048Z,2.46
2018-12-05T00:51:14.081Z,2.48
2018-12-05T00:52:14.125Z,2.48
2018-12-05T00:53:14.153Z,2.60
2018-12-05T00:54:14.187Z,2.57
2018-12-05T00:55:14.221Z,2.57
2018-12-05T00:56:14.256Z,2.54
2018-12-05T00:57:14.307Z,2.48
2018-12-05T00:58:14.439Z,2.45
2018-12-05T00:59:14.363Z,2.48
2018-12-05T01:00:14.404Z,2.45
2018-12-05T01:01:14.430Z,2.45
2018-12-05T01:02:14.466Z,2.45
2018-12-05T01:03:14.501Z,2.52
2018-12-05T01:04:14.544Z,2.52
2018-12-05T01:05:14.573Z,2.45
2018-12-05T01:06:14.606Z,2.45
2018-12-05T01:07:14.642Z,2.46
2018-12-05T01:08:14.676Z,2.49
2018-12-05T01:09:14.714Z,2.46
2018-12-05T01:10:14.747Z,2.49
2018-12-05T01:11:14.782Z,2.46
2018-12-05T01:12:14.818Z,2.38
2018-12-05T01:13:14.851Z,2.43
2018-12-05T01:14:14.886Z,2.43
2018-12-05T01:15:14.923Z,2.48
2018-12-05T01:16:14.959Z,2.43
2018-12-05T01:17:14.990Z,2.52
2018-12-05T01:18:15.039Z,2.45
2018-12-05T01:19:15.061Z,2.41
2018-12-05T01:20:15.098Z,2.41
2018-12-05T01:21:15.143Z,2.36
2018-12-05T01:22:15.170Z,2.43
2018-12-05T01:23:15.214Z,2.46
2018-12-05T01:24:15.238Z,2.49
2018-12-05T01:25:15.270Z,2.43
2018-12-05T01:26:15.305Z,2.52
2018-12-05T01:27:15.344Z,2.43
2018-12-05T01:28:15.376Z,2.52
2018-12-05T01:29:15.411Z,2.56
2018-12-05T01:30:15.451Z,2.57
2018-12-05T01:31:15.482Z,2.54
2018-12-05T01:32:15.519Z,2.64
2018-12-05T01:33:16.365Z,2.64
2018-12-05T01:35:15.622Z,2.63
2018-12-05T01:36:15.658Z,2.60
2018-12-05T01:37:15.690Z,2.61
2018-12-05T01:38:15.726Z,2.59
2018-12-05T01:39:15.760Z,2.54
2018-12-05T01:40:15.856Z,2.49
2018-12-05T01:41:15.831Z,2.48
2018-12-05T01:42:15.869Z,2.53
2018-12-05T01:43:15.901Z,2.48
2018-12-05T01:44:15.936Z,2.57
2018-12-05T01:45:15.971Z,2.56
2018-12-05T01:46:16.016Z,2.45
2018-12-05T01:47:16.041Z,2.54
2018-12-05T01:48:16.079Z,2.52
2018-12-05T01:49:16.115Z,2.52
2018-12-05T01:50:16.147Z,2.52
2018-12-05T01:51:16.192Z,2.59
2018-12-05T01:52:16.217Z,2.57
2018-12-05T01:53:16.253Z,2.53
2018-12-05T01:54:16.446Z,2.64
2018-12-05T01:55:16.332Z,2.67
2018-12-05T01:56:16.357Z,2.67
2018-12-05T01:57:16.396Z,2.64
2018-12-05T01:58:16.428Z,2.52
2018-12-05T01:59:16.463Z,2.57
2018-12-05T02:00:16.498Z,2.48
2018-12-05T02:01:16.534Z,2.46
2018-12-05T02:02:16.575Z,2.38
2018-12-05T02:03:16.613Z,2.42
2018-12-05T02:04:16.639Z,2.27
2018-12-05T02:05:16.681Z,2.30
2018-12-05T02:06:16.709Z,2.30
2018-12-05T02:07:16.746Z,2.31
2018-12-05T02:08:16.780Z,2.27
2018-12-05T02:09:16.823Z,2.24
2018-12-05T02:10:16.849Z,2.23
2018-12-05T02:11:16.882Z,2.27
2018-12-05T02:12:16.919Z,2.31
2018-12-05T02:13:16.953Z,2.31
2018-12-05T02:14:16.988Z,2.25
2018-12-05T02:15:17.026Z,2.28
2018-12-05T02:16:17.061Z,2.28
2018-12-05T02:17:17.094Z,2.25
2018-12-05T02:18:17.138Z,2.38
2018-12-05T02:19:17.168Z,2.45
2018-12-05T02:20:17.204Z,2.31
2018-12-05T02:21:17.236Z,2.35
2018-12-05T02:22:17.269Z,2.30
2018-12-05T02:23:17.306Z,2.39
2018-12-05T02:24:17.343Z,2.35
2018-12-05T02:25:17.373Z,2.28
2018-12-05T02:26:17.417Z,2.35
2018-12-05T02:27:17.451Z,2.34
2018-12-05T02:28:17.480Z,2.36
2018-12-05T02:29:17.515Z,2.48
2018-12-05T02:30:17.550Z,2.42
2018-12-05T02:31:17.586Z,2.52
2018-12-05T02:32:17.625Z,2.48
2018-12-05T02:33:17.707Z,2.48
2018-12-05T02:34:17.707Z,2.48
2018-12-05T02:35:17.725Z,2.49
2018-12-05T02:36:17.761Z,2.48
2018-12-05T02:37:17.795Z,2.46
2018-12-05T02:38:17.829Z,2.46
2018-12-05T02:39:17.864Z,2.34
2018-12-05T02:40:17.948Z,2.48
2018-12-05T02:41:17.934Z,2.45
2018-12-05T02:42:17.968Z,2.39
2018-12-05T02:43:18.023Z,2.34
2018-12-05T02:44:18.038Z,2.45
2018-12-05T02:45:18.083Z,2.49
2018-12-05T02:46:18.182Z,2.46
2018-12-05T02:47:18.142Z,2.36
2018-12-05T02:48:18.179Z,2.42
2018-12-05T02:49:18.214Z,2.31
2018-12-05T02:50:18.249Z,2.21
2018-12-05T02:51:18.293Z,2.31
2018-12-05T02:52:18.320Z,2.28
2018-12-05T02:53:18.353Z,2.30
2018-12-05T02:54:18.395Z,2.34
2018-12-05T02:55:18.424Z,2.35
2018-12-05T02:56:18.473Z,2.31
2018-12-05T02:57:18.494Z,2.38
2018-12-05T02:58:18.530Z,2.38
2018-12-05T02:59:18.566Z,2.28
2018-12-05T03:00:18.598Z,2.28
2018-12-05T03:01:18.635Z,2.23
2018-12-05T03:02:18.669Z,2.18
2018-12-05T03:03:18.704Z,2.17
2018-12-05T03:04:18.739Z,2.18
2018-12-05T03:05:18.776Z,2.17
2018-12-05T03:06:18.808Z,2.14
2018-12-05T03:07:18.844Z,2.16
2018-12-05T03:08:18.880Z,2.18
2018-12-05T03:09:18.912Z,2.16
2018-12-05T03:10:18.966Z,2.17
2018-12-05T03:11:18.984Z,2.18
2018-12-05T03:12:19.021Z,2.16
2018-12-05T03:13:19.054Z,2.10
2018-12-05T03:14:19.091Z,2.10
2018-12-05T03:15:19.128Z,2.16
2018-12-05T03:16:19.157Z,2.14
2018-12-05T03:17:19.190Z,2.18
2018-12-05T03:18:19.226Z,2.17
2018-12-05T03:19:19.269Z,2.21
2018-12-05T03:20:19.299Z,2.14
2018-12-05T03:21:19.331Z,2.23
2018-12-05T03:22:19.368Z,2.18
2018-12-05T03:23:19.400Z,2.14
2018-12-05T03:24:19.436Z,2.20
2018-12-05T03:25:19.472Z,2.21
2018-12-05T03:26:19.506Z,2.17
2018-12-05T03:27:19.541Z,2.27
2018-12-05T03:28:19.577Z,2.12
2018-12-05T03:29:19.617Z,2.18
2018-12-05T03:30:19.645Z,2.16
2018-12-05T03:31:19.685Z,2.24
2018-12-05T03:32:19.722Z,2.23
2018-12-05T03:33:19.750Z,2.16
2018-12-05T03:34:19.785Z,2.18
2018-12-05T03:35:19.822Z,2.20
2018-12-05T03:36:19.854Z,2.18
2018-12-05T03:37:19.890Z,2.27
2018-12-05T03:38:19.924Z,2.27
2018-12-05T03:39:19.967Z,2.23
2018-12-05T03:40:19.993Z,2.16
2018-12-05T03:41:20.028Z,2.12
2018-12-05T03:42:20.064Z,2.18
2018-12-05T03:43:20.102Z,2.28
2018-12-05T03:44:20.138Z,2.23
2018-12-05T03:45:20.167Z,2.20
2018-12-05T03:46:20.207Z,2.17
2018-12-05T03:47:20.237Z,2.17
2018-12-05T03:48:20.272Z,2.17
2018-12-05T03:49:20.305Z,2.14
2018-12-05T03:50:20.340Z,2.14
2018-12-05T03:51:20.376Z,2.10
2018-12-05T03:52:20.415Z,2.14
2018-12-05T03:53:20.446Z,2.00
2018-12-05T03:54:20.480Z,2.05
2018-12-05T03:55:20.516Z,1.91
2018-12-05T03:56:20.552Z,1.98
2018-12-05T03:57:20.585Z,2.00
2018-12-05T03:58:20.620Z,2.02
2018-12-05T03:59:20.655Z,1.98
2018-12-05T04:00:20.690Z,1.87
2018-12-05T04:01:20.723Z,2.03
2018-12-05T04:02:20.763Z,1.90
2018-12-05T04:03:20.795Z,1.81
2018-12-05T04:04:20.830Z,1.72
2018-12-05T04:05:20.864Z,1.86
2018-12-05T04:06:20.906Z,1.98
2018-12-05T04:07:20.932Z,2.02
2018-12-05T04:08:20.969Z,2.00
2018-12-05T04:09:21.002Z,1.90
2018-12-05T04:10:21.037Z,1.95
2018-12-05T04:11:21.073Z,1.90
2018-12-05T04:12:21.116Z,1.88
2018-12-05T04:13:21.141Z,1.83
2018-12-05T04:14:21.176Z,1.81
2018-12-05T04:15:21.213Z,1.84
2018-12-05T04:16:21.247Z,1.83
2018-12-05T04:17:21.283Z,1.80
2018-12-05T04:18:21.318Z,1.81
2018-12-05T04:19:21.350Z,1.91
2018-12-05T04:20:21.385Z,1.84
2018-12-05T04:21:21.420Z,1.80
2018-12-05T04:22:21.456Z,1.81
2018-12-05T04:23:21.491Z,1.81
2018-12-05T04:24:21.525Z,1.81
2018-12-05T04:25:21.563Z,1.80
2018-12-05T04:26:21.596Z,1.84
2018-12-05T04:27:21.635Z,1.72
2018-12-05T04:28:21.663Z,1.65
2018-12-05T04:29:21.698Z,1.66
2018-12-05T04:30:21.735Z,1.66
2018-12-05T04:31:21.775Z,1.65
2018-12-05T04:32:21.809Z,1.70
2018-12-05T04:33:21.838Z,1.76
2018-12-05T04:34:21.873Z,1.72
2018-12-05T04:35:21.916Z,1.72
2018-12-05T04:36:21.949Z,1.84
2018-12-05T04:37:21.975Z,1.77
2018-12-05T04:38:22.010Z,1.79
2018-12-05T04:39:22.045Z,1.76
2018-12-05T04:40:22.090Z,1.86
2018-12-05T04:41:22.112Z,1.81
2018-12-05T04:42:22.149Z,1.88
2018-12-05T04:43:22.184Z,1.83
2018-12-05T04:44:22.218Z,1.86
2018-12-05T04:45:22.252Z,1.77
2018-12-05T04:46:22.290Z,1.77
2018-12-05T04:47:22.327Z,1.80
2018-12-05T04:48:22.358Z,1.80
2018-12-05T04:49:22.392Z,1.80
2018-12-05T04:50:22.433Z,1.66
2018-12-05T04:51:22.473Z,1.58
2018-12-05T04:52:22.511Z,1.52
2018-12-05T04:53:22.530Z,1.52
2018-12-05T04:54:22.565Z,1.44
2018-12-05T04:55:22.602Z,1.51
2018-12-05T04:56:22.636Z,1.34
2018-12-05T04:57:22.669Z,1.34
2018-12-05T04:58:22.713Z,1.26
2018-12-05T04:59:22.740Z,1.33
2018-12-05T05:00:22.795Z,1.29
2018-12-05T05:01:22.807Z,1.20
2018-12-05T05:02:22.848Z,1.36
2018-12-05T05:03:22.880Z,1.33
2018-12-05T05:04:22.918Z,1.42
2018-12-05T05:05:22.948Z,1.40
2018-12-05T05:06:22.982Z,1.29
2018-12-05T05:07:23.016Z,1.32
2018-12-05T05:08:23.156Z,1.27
2018-12-05T05:09:23.084Z,1.11
2018-12-05T05:10:23.123Z,1.16
2018-12-05T05:11:23.154Z,1.22
2018-12-05T05:12:23.190Z,1.24
2018-12-05T05:13:23.221Z,1.09
2018-12-05T05:14:23.256Z,1.11
2018-12-05T05:15:23.292Z,1.26
2018-12-05T05:16:23.327Z,1.26
2018-12-05T05:17:23.361Z,1.20
2018-12-05T05:18:23.396Z,1.29
2018-12-05T05:19:23.431Z,1.37
2018-12-05T05:20:23.472Z,1.30
2018-12-05T05:21:23.499Z,1.32
2018-12-05T05:22:23.542Z,1.30
2018-12-05T05:23:23.570Z,1.30
2018-12-05T05:24:23.611Z,1.29
2018-12-05T05:25:23.637Z,1.29
2018-12-05T05:26:23.670Z,1.29
2018-12-05T05:27:23.707Z,1.18
2018-12-05T05:28:23.744Z,1.20
2018-12-05T05:29:23.788Z,1.15
2018-12-05T05:30:23.815Z,1.15
2018-12-05T05:31:23.954Z,1.09
2018-12-05T05:32:23.881Z,1.15
2018-12-05T05:33:23.913Z,1.12
2018-12-05T05:34:23.947Z,1.05
2018-12-05T05:35:23.983Z,1.05
2018-12-05T05:36:24.017Z,1.04
2018-12-05T05:37:24.050Z,1.08
2018-12-05T05:38:24.095Z,1.00
2018-12-05T05:39:24.225Z,1.09
2018-12-05T05:40:24.154Z,1.05
2018-12-05T05:41:24.207Z,0.98
2018-12-05T05:42:24.223Z,1.08
2018-12-05T05:43:24.264Z,1.11
2018-12-05T05:44:24.293Z,1.02
2018-12-05T05:45:24.325Z,1.09
2018-12-05T05:46:24.461Z,1.09
2018-12-05T05:47:24.405Z,1.24
2018-12-05T05:48:24.430Z,1.24
2018-12-05T05:49:24.463Z,1.32
2018-12-05T05:50:24.499Z,1.30
2018-12-05T05:51:24.532Z,1.27
2018-12-05T05:52:24.574Z,1.22
2018-12-05T05:53:24.601Z,1.22
2018-12-05T05:54:24.638Z,1.14
2018-12-05T05:55:24.678Z,1.11
2018-12-05T05:56:24.705Z,1.08
2018-12-05T05:57:24.740Z,1.12
2018-12-05T05:58:24.781Z,1.14
2018-12-05T05:59:24.811Z,1.14
2018-12-05T06:00:24.846Z,1.12
2018-12-05T06:01:24.878Z,1.18
2018-12-05T06:02:24.922Z,1.12
2018-12-05T06:03:24.948Z,1.18
2018-12-05T06:04:24.981Z,1.26
2018-12-05T06:05:25.016Z,1.26
2018-12-05T06:06:25.051Z,1.29
2018-12-05T06:07:25.084Z,1.24
2018-12-05T06:08:25.119Z,1.24
2018-12-05T06:09:25.153Z,1.24
2018-12-05T06:10:25.190Z,1.23
2018-12-05T06:11:25.221Z,1.24
2018-12-05T06:12:25.258Z,1.12
2018-12-05T06:13:25.290Z,1.23
2018-12-05T06:14:25.330Z,1.22
2018-12-05T06:15:25.359Z,1.22
2018-12-05T06:16:25.394Z,1.33
2018-12-05T06:17:25.427Z,1.30
2018-12-05T06:18:25.463Z,1.26
2018-12-05T06:19:25.498Z,1.23
2018-12-05T06:20:25.533Z,1.26
2018-12-05T06:21:25.566Z,1.27
2018-12-05T06:22:25.601Z,1.30
2018-12-05T06:23:25.645Z,1.26
2018-12-05T06:24:25.675Z,1.26
2018-12-05T06:25:25.704Z,1.15
2018-12-05T06:26:25.739Z,1.32
2018-12-05T06:27:25.775Z,1.32
2018-12-05T06:28:25.808Z,1.26
2018-12-05T06:29:25.842Z,1.36
2018-12-05T06:30:25.878Z,1.29
2018-12-05T06:31:25.924Z,1.36
2018-12-05T06:32:25.949Z,1.36
2018-12-05T06:33:25.982Z,1.34
2018-12-05T06:34:26.015Z,1.32
2018-12-05T06:35:26.049Z,1.33
2018-12-05T06:36:26.087Z,1.37
2018-12-05T06:37:26.119Z,1.40
2018-12-05T06:38:26.152Z,1.40
2018-12-05T06:39:26.196Z,1.40
2018-12-05T06:40:26.221Z,1.36
2018-12-05T06:41:26.256Z,1.36
2018-12-05T06:42:26.290Z,1.26
2018-12-05T06:43:26.325Z,1.26
2018-12-05T06:44:26.364Z,1.27
2018-12-05T06:45:26.394Z,1.29
2018-12-05T06:46:26.438Z,1.29
2018-12-05T06:47:27.952Z,1.20
2018-12-05T06:48:26.498Z,1.27
2018-12-05T06:49:26.530Z,1.26
2018-12-05T06:50:26.565Z,1.29
2018-12-05T06:51:26.600Z,1.40
2018-12-05T06:52:26.634Z,1.36
2018-12-05T06:53:26.679Z,1.41
2018-12-05T06:54:26.704Z,1.37
2018-12-05T06:55:26.739Z,1.42
2018-12-05T06:56:26.773Z,1.41
2018-12-05T06:57:26.809Z,1.44
2018-12-05T06:58:26.841Z,1.33
2018-12-05T06:59:26.883Z,1.44
2018-12-05T07:00:26.910Z,1.40
2018-12-05T07:01:26.946Z,1.41
2018-12-05T07:02:26.984Z,1.42
2018-12-05T07:03:27.014Z,1.41
2018-12-05T07:04:27.051Z,1.37
2018-12-05T07:05:27.091Z,1.40
2018-12-05T07:06:27.118Z,1.37
2018-12-05T07:07:27.154Z,1.32
2018-12-05T07:08:27.187Z,1.41
2018-12-05T07:09:27.219Z,1.40
2018-12-05T07:10:27.255Z,1.40
2018-12-05T07:11:27.300Z,1.42
2018-12-05T07:12:27.324Z,1.33
2018-12-05T07:13:27.360Z,1.34
2018-12-05T07:14:27.392Z,1.45
2018-12-05T07:15:27.427Z,1.51
2018-12-05T07:16:27.463Z,1.34
2018-12-05T07:17:27.495Z,1.41
2018-12-05T07:18:27.592Z,1.48
2018-12-05T07:19:27.566Z,1.42
2018-12-05T07:20:27.599Z,1.41
2018-12-05T07:21:27.633Z,1.42
2018-12-05T07:22:27.677Z,1.41
2018-12-05T07:23:27.727Z,1.50
2018-12-05T07:24:27.740Z,1.42
2018-12-05T07:25:27.770Z,1.44
2018-12-05T07:26:27.806Z,1.33
2018-12-05T07:27:27.840Z,1.36
2018-12-05T07:28:27.876Z,1.36
2018-12-05T07:29:27.909Z,1.41
2018-12-05T07:30:29.549Z,1.41
2018-12-05T07:31:27.982Z,1.34
2018-12-05T07:32:28.013Z,1.33
2018-12-05T07:33:28.047Z,1.40
2018-12-05T07:34:28.082Z,1.48
2018-12-05T07:35:28.124Z,1.41
2018-12-05T07:36:28.156Z,1.51
2018-12-05T07:37:28.185Z,1.44
2018-12-05T07:38:28.226Z,1.55
2018-12-05T07:39:28.255Z,1.41
2018-12-05T07:40:28.292Z,1.45
2018-12-05T07:41:28.322Z,1.42
2018-12-05T07:42:28.361Z,1.44
2018-12-05T07:43:28.392Z,1.40
2018-12-05T07:44:28.427Z,1.45
2018-12-05T07:45:28.462Z,1.44
2018-12-05T07:46:28.496Z,1.41
2018-12-05T07:47:28.533Z,1.34
2018-12-05T07:48:28.581Z,1.42
2018-12-05T07:49:28.600Z,1.40
2018-12-05T07:50:28.636Z,1.48
2018-12-05T07:51:28.670Z,1.40
2018-12-05T07:52:28.702Z,1.51
2018-12-05T07:53:28.737Z,1.52
2018-12-05T07:54:28.775Z,1.45
2018-12-05T07:55:28.805Z,1.54
2018-12-05T07:56:28.862Z,1.50
2018-12-05T07:57:28.873Z,1.62
2018-12-05T07:58:28.909Z,1.66
2018-12-05T07:59:28.947Z,1.65
2018-12-05T08:00:28.986Z,1.73
2018-12-05T08:01:29.012Z,1.70
2018-12-05T08:02:29.049Z,1.80
2018-12-05T08:03:29.084Z,1.79
2018-12-05T08:04:29.116Z,1.79
2018-12-05T08:05:29.154Z,1.81
2018-12-05T08:06:29.185Z,1.81
2018-12-05T08:07:29.220Z,1.73
2018-12-05T08:08:29.256Z,1.77
2018-12-05T08:09:29.289Z,1.66
2018-12-05T08:10:29.340Z,1.52
2018-12-05T08:11:29.367Z,1.65
2018-12-05T08:12:29.393Z,1.68
2018-12-05T08:13:29.426Z,1.70
2018-12-05T08:14:29.460Z,1.86
2018-12-05T08:15:29.503Z,1.80
2018-12-05T08:16:29.531Z,1.77
2018-12-05T08:17:29.569Z,1.91
2018-12-05T08:18:29.601Z,1.95
2018-12-05T08:19:29.636Z,1.99
2018-12-05T08:20:29.672Z,1.99
2018-12-05T08:21:29.705Z,2.20
2018-12-05T08:22:29.738Z,2.21
2018-12-05T08:23:29.777Z,2.18
2018-12-05T08:24:29.812Z,2.12
2018-12-05T08:25:29.843Z,2.16
2018-12-05T08:26:29.878Z,1.99
2018-12-05T08:27:29.912Z,2.07
2018-12-05T08:28:29.956Z,2.02
2018-12-05T08:29:29.980Z,2.00
2018-12-05T08:30:30.023Z,1.91
2018-12-05T08:31:30.058Z,1.80
2018-12-05T08:32:30.086Z,1.76
2018-12-05T08:33:30.120Z,1.88
2018-12-05T08:34:30.155Z,1.88
2018-12-05T08:35:30.190Z,1.86
2018-12-05T08:36:30.225Z,1.84
2018-12-05T08:37:30.257Z,1.81
2018-12-05T08:38:30.293Z,1.63
2018-12-05T08:39:30.331Z,1.72
2018-12-05T08:40:30.450Z,1.68
2018-12-05T08:41:30.399Z,1.69
2018-12-05T08:42:30.432Z,1.66
2018-12-05T08:43:30.474Z,1.69
2018-12-05T08:44:30.501Z,1.63
2018-12-05T08:45:30.535Z,1.65
2018-12-05T08:46:30.570Z,1.77
2018-12-05T08:47:33.783Z,1.65
2018-12-05T08:48:30.641Z,1.80
2018-12-05T08:49:30.674Z,1.79
2018-12-05T08:50:30.710Z,1.80
2018-12-05T08:51:30.743Z,1.68
2018-12-05T08:52:30.842Z,1.76
2018-12-05T08:53:30.814Z,1.86
2018-12-05T08:54:30.848Z,1.84
2018-12-05T08:55:30.891Z,1.86
2018-12-05T08:56:30.918Z,1.87
2018-12-05T08:57:30.953Z,1.87
2018-12-05T08:58:30.986Z,1.88
2018-12-05T08:59:31.020Z,1.79
2018-12-05T09:00:31.057Z,1.79
2018-12-05T09:01:31.090Z,1.98
2018-12-05T09:02:31.129Z,2.00
2018-12-05T09:03:31.161Z,2.02
2018-12-05T09:04:31.196Z,2.03
2018-12-05T09:05:31.237Z,2.12
2018-12-05T09:06:31.264Z,2.17
2018-12-05T09:07:31.298Z,2.34
2018-12-05T09:08:31.334Z,2.25
2018-12-05T09:09:31.386Z,2.34
2018-12-05T09:10:31.403Z,2.49
2018-12-05T09:11:31.438Z,2.48
2018-12-05T09:12:31.474Z,2.54
2018-12-05T09:13:31.507Z,2.63
2018-12-05T09:14:31.543Z,2.67
2018-12-05T09:15:31.578Z,2.74
2018-12-05T09:16:31.613Z,2.60
2018-12-05T09:17:31.648Z,2.59
2018-12-05T09:18:31.683Z,2.64
2018-12-05T09:19:31.716Z,2.79
2018-12-05T09:20:31.771Z,2.75
2018-12-05T09:21:31.785Z,2.79
2018-12-05T09:22:31.825Z,2.85
2018-12-05T09:23:31.857Z,2.87
2018-12-05T09:24:31.891Z,2.71
2018-12-05T09:25:31.928Z,2.74
2018-12-05T09:26:31.970Z,2.84
2018-12-05T09:27:31.999Z,2.82
2018-12-05T09:28:32.034Z,2.85
2018-12-05T09:29:32.068Z,2.82
2018-12-05T09:30:32.102Z,2.90
2018-12-05T09:31:32.145Z,2.90
2018-12-05T09:32:32.174Z,3.10
2018-12-05T09:33:32.208Z,3.15
2018-12-05T09:34:32.242Z,3.29
2018-12-05T09:35:32.277Z,3.23
2018-12-05T09:36:32.312Z,3.35
2018-12-05T09:37:32.352Z,3.35
2018-12-05T09:38:32.381Z,3.50
2018-12-05T09:39:32.426Z,3.47
2018-12-05T09:40:32.452Z,3.48
2018-12-05T09:41:32.491Z,3.57
2018-12-05T09:42:32.531Z,3.39
2018-12-05T09:43:32.560Z,3.33
2018-12-05T09:44:32.601Z,3.29
2018-12-05T09:45:32.629Z,3.20
2018-12-05T09:46:32.663Z,3.21
2018-12-05T09:47:32.708Z,3.20
2018-12-05T09:48:32.735Z,3.11
2018-12-05T09:49:32.770Z,3.14
2018-12-05T09:50:32.807Z,2.99
2018-12-05T09:51:32.840Z,3.14
2018-12-05T09:52:32.877Z,3.14
2018-12-05T09:53:32.922Z,3.18
2018-12-05T09:54:32.947Z,3.23
2018-12-05T09:55:32.982Z,3.21
2018-12-05T09:56:33.018Z,3.33
2018-12-05T09:57:33.052Z,3.40
2018-12-05T09:58:33.090Z,3.31
2018-12-05T09:59:33.122Z,3.45
2018-12-05T10:00:33.159Z,3.45
2018-12-05T10:01:33.204Z,3.54
2018-12-05T10:02:33.229Z,3.47
2018-12-05T10:03:33.263Z,3.54
2018-12-05T10:04:33.307Z,3.55
2018-12-05T10:05:33.343Z,3.66
2018-12-05T10:06:33.371Z,3.70
2018-12-05T10:07:33.421Z,3.52
2018-12-05T10:08:33.450Z,3.51
2018-12-05T10:09:33.484Z,3.57
2018-12-05T10:10:33.513Z,3.48
2018-12-05T10:11:33.547Z,3.55
2018-12-05T10:12:33.584Z,3.54
2018-12-05T10:13:33.618Z,3.69
2018-12-05T10:14:33.655Z,3.70
2018-12-05T10:15:33.691Z,3.65
2018-12-05T10:16:33.725Z,3.72
2018-12-05T10:17:33.760Z,3.80
2018-12-05T10:18:33.798Z,3.69
2018-12-05T10:19:33.831Z,3.75
2018-12-05T10:20:33.868Z,3.70
2018-12-05T10:21:33.903Z,3.79
2018-12-05T10:22:33.941Z,3.86
2018-12-05T10:23:33.977Z,3.70
2018-12-05T10:24:34.018Z,3.79
2018-12-05T10:25:34.049Z,3.80
2018-12-05T10:26:34.103Z,3.84
2018-12-05T10:27:34.115Z,3.79
2018-12-05T10:28:34.150Z,3.79
2018-12-05T10:29:34.186Z,3.80
2018-12-05T10:30:34.224Z,3.80
2018-12-05T10:31:34.259Z,3.76
2018-12-05T10:32:34.295Z,3.76
2018-12-05T10:33:34.332Z,3.80
2018-12-05T10:34:34.365Z,3.80
2018-12-05T10:35:34.400Z,3.80
2018-12-05T10:36:34.445Z,3.80
2018-12-05T10:37:34.476Z,3.78
2018-12-05T10:38:34.508Z,3.72
2018-12-05T10:39:34.575Z,3.83
2018-12-05T10:40:34.580Z,3.87
2018-12-05T10:41:34.616Z,3.83
2018-12-05T10:42:34.650Z,3.78
2018-12-05T10:43:34.708Z,3.78
2018-12-05T10:44:34.745Z,3.88
2018-12-05T10:45:34.754Z,3.80
2018-12-05T10:46:34.792Z,3.80
2018-12-05T10:47:34.826Z,3.78
2018-12-05T10:48:34.863Z,3.76
2018-12-05T10:49:34.900Z,3.78
2018-12-05T10:50:34.936Z,3.80
2018-12-05T10:51:34.970Z,3.76
2018-12-05T10:52:35.005Z,3.78
2018-12-05T10:53:35.041Z,3.70
2018-12-05T10:54:35.076Z,3.84
2018-12-05T10:55:35.120Z,3.79
2018-12-05T10:56:35.148Z,3.78
2018-12-05T10:57:35.184Z,3.78
2018-12-05T10:58:35.219Z,3.78
2018-12-05T10:59:35.254Z,3.78
2018-12-05T11:00:35.290Z,3.87
2018-12-05T11:01:35.330Z,3.86
2018-12-05T11:02:35.361Z,3.91
2018-12-05T11:03:35.398Z,3.97
2018-12-05T11:04:35.433Z,3.97
2018-12-05T11:05:35.467Z,3.98
2018-12-05T11:06:35.504Z,3.98
2018-12-05T11:07:35.540Z,3.90
2018-12-05T11:08:35.575Z,4.02
2018-12-05T11:09:35.612Z,3.94
2018-12-05T11:10:35.646Z,4.04
2018-12-05T11:11:35.683Z,4.00
2018-12-05T11:12:35.723Z,4.00
2018-12-05T11:13:35.754Z,4.12
2018-12-05T11:14:35.789Z,4.11
2018-12-05T11:15:35.882Z,4.15
2018-12-05T11:16:35.869Z,4.08
2018-12-05T11:17:35.897Z,4.09
2018-12-05T11:18:35.934Z,4.22
2018-12-05T11:19:35.978Z,4.29
2018-12-05T11:20:36.004Z,4.20
2018-12-05T11:21:36.040Z,4.32
2018-12-05T11:22:36.078Z,4.29
2018-12-05T11:23:36.111Z,4.30
2018-12-05T11:24:36.147Z,4.32
2018-12-05T11:25:36.182Z,4.32
2018-12-05T11:26:36.219Z,4.30
2018-12-05T11:27:36.256Z,4.30
2018-12-05T11:28:36.292Z,4.27
2018-12-05T11:29:36.326Z,4.26
2018-12-05T11:30:36.364Z,4.23
2018-12-05T11:31:36.396Z,4.24
2018-12-05T11:32:36.437Z,4.16
2018-12-05T11:33:36.476Z,4.29
2018-12-05T11:34:36.516Z,4.15
2018-12-05T11:35:36.543Z,4.30
2018-12-05T11:36:36.580Z,4.30
2018-12-05T11:37:36.620Z,4.30
2018-12-05T11:38:36.659Z,4.42
2018-12-05T11:39:36.688Z,4.44
2018-12-05T11:40:36.726Z,4.54
2018-12-05T11:41:36.761Z,4.52
2018-12-05T11:42:36.797Z,4.52
2018-12-05T11:43:36.834Z,4.62
2018-12-05T11:44:36.878Z,4.62
2018-12-05T11:45:36.902Z,4.75
2018-12-05T11:46:36.939Z,4.78
2018-12-05T11:47:36.980Z,4.80
2018-12-05T11:48:37.012Z,4.92
2018-12-05T11:49:37.048Z,4.92
2018-12-05T11:50:37.083Z,4.96
2018-12-05T11:51:37.118Z,4.97
2018-12-05T11:52:37.154Z,5.03
2018-12-05T11:53:37.192Z,5.00
2018-12-05T11:54:37.225Z,5.03
2018-12-05T11:55:37.262Z,5.00
2018-12-05T11:56:37.301Z,5.03
2018-12-05T11:57:37.333Z,5.09
2018-12-05T11:58:37.372Z,5.09
2018-12-05T11:59:37.415Z,5.07
2018-12-05T12:00:37.443Z,5.04
2018-12-05T12:01:37.490Z,5.21
2018-12-05T12:02:37.521Z,5.18
2018-12-05T12:03:37.550Z,5.18
2018-12-05T12:04:37.588Z,5.25
2018-12-05T12:05:37.623Z,5.18
2018-12-05T12:06:37.659Z,5.27
2018-12-05T12:07:37.696Z,5.24
2018-12-05T12:08:37.731Z,5.18
2018-12-05T12:09:37.769Z,5.22
2018-12-05T12:10:37.803Z,5.30
2018-12-05T12:11:37.840Z,5.21
2018-12-05T12:12:37.880Z,5.20
2018-12-05T12:13:37.914Z,5.21
2018-12-05T12:14:37.959Z,5.21
2018-12-05T12:15:37.986Z,5.25
2018-12-05T12:16:38.032Z,5.28
2018-12-05T12:17:38.058Z,5.36
2018-12-05T12:18:38.097Z,5.54
2018-12-05T12:19:38.131Z,5.36
2018-12-05T12:20:38.174Z,5.33
2018-12-05T12:21:38.209Z,5.42
2018-12-05T12:22:38.241Z,5.48
2018-12-05T12:23:38.276Z,5.45
2018-12-05T12:24:38.364Z,5.51
2018-12-05T12:25:38.347Z,5.53
2018-12-05T12:26:38.395Z,5.56
2018-12-05T12:27:38.429Z,5.49
2018-12-05T12:28:38.458Z,5.61
2018-12-05T12:29:38.500Z,5.68
2018-12-05T12:30:38.530Z,5.64
2018-12-05T12:31:38.567Z,5.71
2018-12-05T12:32:38.605Z,5.64
2018-12-05T12:33:38.639Z,5.74
2018-12-05T12:34:38.682Z,5.76
2018-12-05T12:35:38.713Z,5.89
2018-12-05T12:36:38.750Z,5.83
2018-12-05T12:37:38.785Z,5.85
2018-12-05T12:38:40.546Z,5.90
2018-12-05T12:39:38.863Z,5.96
2018-12-05T12:40:38.896Z,5.83
2018-12-05T12:41:38.948Z,5.99
2018-12-05T12:42:38.976Z,5.86
2018-12-05T12:43:39.004Z,5.96
2018-12-05T12:44:39.039Z,5.99
2018-12-05T12:45:39.076Z,5.93
2018-12-05T12:46:39.116Z,5.94
2018-12-05T12:47:39.150Z,6.03
2018-12-05T12:48:39.558Z,6.00
2018-12-05T12:49:39.224Z,5.99
2018-12-05T12:50:39.261Z,6.03
2018-12-05T12:51:39.301Z,5.97
2018-12-05T12:52:39.333Z,5.99
2018-12-05T12:53:39.376Z,6.08
2018-12-05T12:54:39.406Z,6.12
2018-12-05T12:55:39.446Z,6.06
2018-12-05T12:56:39.479Z,6.06
2018-12-05T12:57:39.515Z,5.96
2018-12-05T12:58:39.630Z,6.06
2018-12-05T12:59:39.591Z,6.14
2018-12-05T13:00:39.626Z,6.04
2018-12-05T13:01:39.660Z,6.04
2018-12-05T13:02:39.699Z,6.04
2018-12-05T13:03:39.735Z,6.00
2018-12-05T13:04:39.770Z,6.08
2018-12-05T13:05:39.811Z,6.14
2018-12-05T13:06:39.843Z,6.09
2018-12-05T13:07:39.890Z,6.09
2018-12-05T13:08:39.917Z,6.11
2018-12-05T13:09:39.956Z,6.09
2018-12-05T13:10:39.992Z,6.12
2018-12-05T13:11:40.028Z,6.06
2018-12-05T13:12:40.070Z,6.19
2018-12-05T13:13:40.100Z,6.12
2018-12-05T13:14:40.138Z,6.17
2018-12-05T13:15:40.176Z,6.19
2018-12-05T13:16:40.212Z,6.17
2018-12-05T13:17:40.247Z,6.12
2018-12-05T13:18:40.284Z,6.09
2018-12-05T13:19:40.320Z,6.03